sensor_id;sensor_type;location;lat;lon;timestamp;temperature;humidity
18597;DHT22;9428;50.950;6.912;2023-06-14T00:01:50;21.70;75.20
18597;DHT22;9428;50.950;6.912;2023-06-14T00:04:37;21.60;75.10
18597;DHT22;9428;50.950;6.912;2023-06-14T00:07:34;21.60;75.90
18597;DHT22;9428;50.950;6.912;2023-06-14T00:10:23;21.60;76.50
18597;DHT22;9428;50.950;6.912;2023-06-14T00:13:10;21.50;77.50
18597;DHT22;9428;50.950;6.912;2023-06-14T00:15:57;21.60;76.40
18597;DHT22;9428;50.950;6.912;2023-06-14T00:18:45;21.60;76.70
18597;DHT22;9428;50.950;6.912;2023-06-14T00:21:32;21.40;79.40
18597;DHT22;9428;50.950;6.912;2023-06-14T00:24:20;21.20;80.60
18597;DHT22;9428;50.950;6.912;2023-06-14T00:27:09;21.00;80.90
18597;DHT22;9428;50.950;6.912;2023-06-14T00:29:57;21.00;81.50
18597;DHT22;9428;50.950;6.912;2023-06-14T00:32:44;21.10;82.00
18597;DHT22;9428;50.950;6.912;2023-06-14T00:35:32;21.20;81.70
18597;DHT22;9428;50.950;6.912;2023-06-14T00:38:19;21.10;81.80
18597;DHT22;9428;50.950;6.912;2023-06-14T00:41:06;21.10;81.40
18597;DHT22;9428;50.950;6.912;2023-06-14T00:43:55;21.10;81.70
18597;DHT22;9428;50.950;6.912;2023-06-14T00:46:43;21.10;81.60
18597;DHT22;9428;50.950;6.912;2023-06-14T00:49:31;21.10;82.10
18597;DHT22;9428;50.950;6.912;2023-06-14T00:52:19;21.10;79.90
18597;DHT22;9428;50.950;6.912;2023-06-14T00:55:07;21.00;79.60
18597;DHT22;9428;50.950;6.912;2023-06-14T00:57:54;21.00;80.50
18597;DHT22;9428;50.950;6.912;2023-06-14T01:00:43;20.90;81.50
18597;DHT22;9428;50.950;6.912;2023-06-14T01:03:31;20.90;82.40
18597;DHT22;9428;50.950;6.912;2023-06-14T01:06:23;20.90;83.10
18597;DHT22;9428;50.950;6.912;2023-06-14T01:09:18;20.70;83.30
18597;DHT22;9428;50.950;6.912;2023-06-14T01:12:13;20.50;83.30
18597;DHT22;9428;50.950;6.912;2023-06-14T01:15:03;20.60;84.70
18597;DHT22;9428;50.950;6.912;2023-06-14T01:17:52;20.60;84.80
18597;DHT22;9428;50.950;6.912;2023-06-14T01:20:39;20.60;84.80
18597;DHT22;9428;50.950;6.912;2023-06-14T01:23:28;20.10;85.90
18597;DHT22;9428;50.950;6.912;2023-06-14T01:26:18;20.10;87.00
18597;DHT22;9428;50.950;6.912;2023-06-14T01:29:06;20.20;86.40
18597;DHT22;9428;50.950;6.912;2023-06-14T01:31:54;20.20;85.90
18597;DHT22;9428;50.950;6.912;2023-06-14T01:34:41;20.20;86.10
18597;DHT22;9428;50.950;6.912;2023-06-14T01:37:29;20.00;85.70
18597;DHT22;9428;50.950;6.912;2023-06-14T01:40:19;20.30;86.30
18597;DHT22;9428;50.950;6.912;2023-06-14T01:43:08;20.20;86.40
18597;DHT22;9428;50.950;6.912;2023-06-14T01:45:57;20.40;86.50
18597;DHT22;9428;50.950;6.912;2023-06-14T01:48:45;20.50;86.50
18597;DHT22;9428;50.950;6.912;2023-06-14T01:51:32;20.30;86.70
18597;DHT22;9428;50.950;6.912;2023-06-14T01:54:19;20.40;87.20
18597;DHT22;9428;50.950;6.912;2023-06-14T01:57:09;20.40;87.00
18597;DHT22;9428;50.950;6.912;2023-06-14T01:59:57;20.30;86.90
18597;DHT22;9428;50.950;6.912;2023-06-14T02:02:44;20.30;87.00
18597;DHT22;9428;50.950;6.912;2023-06-14T02:05:31;20.40;87.40
18597;DHT22;9428;50.950;6.912;2023-06-14T02:08:20;20.30;88.10
18597;DHT22;9428;50.950;6.912;2023-06-14T02:11:07;20.30;88.60
18597;DHT22;9428;50.950;6.912;2023-06-14T02:13:56;20.20;88.90
18597;DHT22;9428;50.950;6.912;2023-06-14T02:16:45;20.10;90.50
18597;DHT22;9428;50.950;6.912;2023-06-14T02:19:35;20.00;90.90
18597;DHT22;9428;50.950;6.912;2023-06-14T02:22:22;20.00;91.10
18597;DHT22;9428;50.950;6.912;2023-06-14T02:25:09;20.00;91.60
18597;DHT22;9428;50.950;6.912;2023-06-14T02:27:56;20.00;91.90
18597;DHT22;9428;50.950;6.912;2023-06-14T02:30:45;20.00;92.00
18597;DHT22;9428;50.950;6.912;2023-06-14T02:33:32;20.00;91.90
18597;DHT22;9428;50.950;6.912;2023-06-14T02:36:19;19.80;92.40
18597;DHT22;9428;50.950;6.912;2023-06-14T02:39:06;19.80;93.10
18597;DHT22;9428;50.950;6.912;2023-06-14T02:41:55;19.80;93.60
18597;DHT22;9428;50.950;6.912;2023-06-14T02:44:42;20.00;92.80
18597;DHT22;9428;50.950;6.912;2023-06-14T02:47:32;19.80;92.10
18597;DHT22;9428;50.950;6.912;2023-06-14T02:50:19;19.90;93.30
18597;DHT22;9428;50.950;6.912;2023-06-14T02:53:07;20.10;91.80
18597;DHT22;9428;50.950;6.912;2023-06-14T02:55:54;20.00;91.90
18597;DHT22;9428;50.950;6.912;2023-06-14T02:58:42;20.00;91.60
18597;DHT22;9428;50.950;6.912;2023-06-14T03:01:29;20.00;91.70
18597;DHT22;9428;50.950;6.912;2023-06-14T03:04:21;20.10;91.70
18597;DHT22;9428;50.950;6.912;2023-06-14T03:07:11;20.00;91.60
18597;DHT22;9428;50.950;6.912;2023-06-14T03:09:59;19.90;91.60
18597;DHT22;9428;50.950;6.912;2023-06-14T03:12:46;19.90;91.30
18597;DHT22;9428;50.950;6.912;2023-06-14T03:15:33;20.00;90.80
18597;DHT22;9428;50.950;6.912;2023-06-14T03:18:21;20.00;90.40
18597;DHT22;9428;50.950;6.912;2023-06-14T03:21:10;19.90;90.70
18597;DHT22;9428;50.950;6.912;2023-06-14T03:23:57;20.00;90.40
18597;DHT22;9428;50.950;6.912;2023-06-14T03:26:44;19.90;90.20
18597;DHT22;9428;50.950;6.912;2023-06-14T03:29:32;19.90;91.50
18597;DHT22;9428;50.950;6.912;2023-06-14T03:32:19;19.70;93.50
18597;DHT22;9428;50.950;6.912;2023-06-14T03:35:07;19.70;94.10
18597;DHT22;9428;50.950;6.912;2023-06-14T03:37:56;19.70;94.80
18597;DHT22;9428;50.950;6.912;2023-06-14T03:40:43;19.50;95.80
18597;DHT22;9428;50.950;6.912;2023-06-14T03:43:31;19.50;96.70
18597;DHT22;9428;50.950;6.912;2023-06-14T03:46:19;19.60;97.00
18597;DHT22;9428;50.950;6.912;2023-06-14T03:49:06;19.60;97.00
18597;DHT22;9428;50.950;6.912;2023-06-14T03:51:53;19.50;98.30
18597;DHT22;9428;50.950;6.912;2023-06-14T03:54:42;19.50;98.40
18597;DHT22;9428;50.950;6.912;2023-06-14T03:57:30;19.50;98.70
18597;DHT22;9428;50.950;6.912;2023-06-14T04:00:18;19.50;99.10
18597;DHT22;9428;50.950;6.912;2023-06-14T04:03:05;19.40;99.00
18597;DHT22;9428;50.950;6.912;2023-06-14T04:05:52;19.30;99.90
18597;DHT22;9428;50.950;6.912;2023-06-14T04:08:42;19.50;99.90
18597;DHT22;9428;50.950;6.912;2023-06-14T04:11:32;19.40;99.90
18597;DHT22;9428;50.950;6.912;2023-06-14T04:14:20;19.40;99.90
18597;DHT22;9428;50.950;6.912;2023-06-14T04:17:07;19.00;99.90
18597;DHT22;9428;50.950;6.912;2023-06-14T04:19:54;19.50;99.90
18597;DHT22;9428;50.950;6.912;2023-06-14T04:22:44;19.50;99.90
18597;DHT22;9428;50.950;6.912;2023-06-14T04:25:31;19.50;99.90
18597;DHT22;9428;50.950;6.912;2023-06-14T04:28:21;19.50;99.90
18597;DHT22;9428;50.950;6.912;2023-06-14T04:31:12;19.60;99.90
18597;DHT22;9428;50.950;6.912;2023-06-14T04:34:00;19.70;95.60
18597;DHT22;9428;50.950;6.912;2023-06-14T04:36:47;19.70;93.70
18597;DHT22;9428;50.950;6.912;2023-06-14T04:39:38;19.90;93.70
18597;DHT22;9428;50.950;6.912;2023-06-14T04:42:26;19.90;92.00
18597;DHT22;9428;50.950;6.912;2023-06-14T04:45:17;19.80;92.00
18597;DHT22;9428;50.950;6.912;2023-06-14T04:48:05;19.90;92.20
18597;DHT22;9428;50.950;6.912;2023-06-14T04:50:52;20.00;91.60
18597;DHT22;9428;50.950;6.912;2023-06-14T04:53:39;20.00;90.70
18597;DHT22;9428;50.950;6.912;2023-06-14T04:56:26;20.00;90.50
18597;DHT22;9428;50.950;6.912;2023-06-14T04:59:15;20.00;90.50
18597;DHT22;9428;50.950;6.912;2023-06-14T05:02:04;20.00;90.40
18597;DHT22;9428;50.950;6.912;2023-06-14T05:04:53;20.00;89.80
18597;DHT22;9428;50.950;6.912;2023-06-14T05:07:42;20.00;89.60
18597;DHT22;9428;50.950;6.912;2023-06-14T05:10:29;20.00;89.40
18597;DHT22;9428;50.950;6.912;2023-06-14T05:13:17;20.10;89.70
18597;DHT22;9428;50.950;6.912;2023-06-14T05:16:04;20.10;90.00
18597;DHT22;9428;50.950;6.912;2023-06-14T05:18:53;20.00;89.50
18597;DHT22;9428;50.950;6.912;2023-06-14T05:21:41;20.00;88.80
18597;DHT22;9428;50.950;6.912;2023-06-14T05:24:28;20.10;89.50
18597;DHT22;9428;50.950;6.912;2023-06-14T05:27:16;20.00;90.00
18597;DHT22;9428;50.950;6.912;2023-06-14T05:30:04;20.00;89.40
18597;DHT22;9428;50.950;6.912;2023-06-14T05:32:51;20.10;90.00
18597;DHT22;9428;50.950;6.912;2023-06-14T05:35:42;20.20;90.60
18597;DHT22;9428;50.950;6.912;2023-06-14T05:38:29;20.10;89.80
18597;DHT22;9428;50.950;6.912;2023-06-14T05:41:16;20.10;89.70
18597;DHT22;9428;50.950;6.912;2023-06-14T05:44:04;20.10;90.00
18597;DHT22;9428;50.950;6.912;2023-06-14T05:46:51;20.20;90.30
18597;DHT22;9428;50.950;6.912;2023-06-14T05:49:38;20.30;90.60
18597;DHT22;9428;50.950;6.912;2023-06-14T05:52:27;20.20;89.20
18597;DHT22;9428;50.950;6.912;2023-06-14T05:55:16;20.20;89.20
18597;DHT22;9428;50.950;6.912;2023-06-14T05:58:03;20.20;90.00
18597;DHT22;9428;50.950;6.912;2023-06-14T06:00:50;20.20;90.10
18597;DHT22;9428;50.950;6.912;2023-06-14T06:03:39;20.40;90.20
18597;DHT22;9428;50.950;6.912;2023-06-14T06:06:27;20.40;90.20
18597;DHT22;9428;50.950;6.912;2023-06-14T06:09:15;20.40;90.00
18597;DHT22;9428;50.950;6.912;2023-06-14T06:12:06;20.40;90.00
18597;DHT22;9428;50.950;6.912;2023-06-14T06:14:54;20.40;89.30
18597;DHT22;9428;50.950;6.912;2023-06-14T06:17:41;20.40;89.30
18597;DHT22;9428;50.950;6.912;2023-06-14T06:20:29;20.40;89.00
18597;DHT22;9428;50.950;6.912;2023-06-14T06:23:17;20.20;89.70
18597;DHT22;9428;50.950;6.912;2023-06-14T06:26:06;20.50;90.00
18597;DHT22;9428;50.950;6.912;2023-06-14T06:28:53;20.50;89.60
18597;DHT22;9428;50.950;6.912;2023-06-14T06:31:40;20.60;89.00
18597;DHT22;9428;50.950;6.912;2023-06-14T06:34:28;20.60;89.00
18597;DHT22;9428;50.950;6.912;2023-06-14T06:37:15;20.80;89.30
18597;DHT22;9428;50.950;6.912;2023-06-14T06:40:02;20.40;89.60
18597;DHT22;9428;50.950;6.912;2023-06-14T06:42:53;20.80;89.60
18597;DHT22;9428;50.950;6.912;2023-06-14T06:45:40;20.90;88.90
18597;DHT22;9428;50.950;6.912;2023-06-14T06:48:27;20.90;88.20
18597;DHT22;9428;50.950;6.912;2023-06-14T06:51:15;21.00;90.10
18597;DHT22;9428;50.950;6.912;2023-06-14T06:54:02;21.00;88.20
18597;DHT22;9428;50.950;6.912;2023-06-14T06:56:49;21.10;87.00
18597;DHT22;9428;50.950;6.912;2023-06-14T06:59:38;21.10;87.10
18597;DHT22;9428;50.950;6.912;2023-06-14T07:02:25;21.30;86.90
18597;DHT22;9428;50.950;6.912;2023-06-14T07:05:12;21.40;86.30
18597;DHT22;9428;50.950;6.912;2023-06-14T07:08:00;21.50;86.20
18597;DHT22;9428;50.950;6.912;2023-06-14T07:10:47;21.50;85.70
18597;DHT22;9428;50.950;6.912;2023-06-14T07:13:34;21.60;85.00
18597;DHT22;9428;50.950;6.912;2023-06-14T07:16:23;21.60;84.70
18597;DHT22;9428;50.950;6.912;2023-06-14T07:19:11;21.60;85.40
18597;DHT22;9428;50.950;6.912;2023-06-14T07:21:58;21.60;85.80
18597;DHT22;9428;50.950;6.912;2023-06-14T07:24:46;21.70;84.70
18597;DHT22;9428;50.950;6.912;2023-06-14T07:27:33;21.50;84.60
18597;DHT22;9428;50.950;6.912;2023-06-14T07:30:20;21.50;85.30
18597;DHT22;9428;50.950;6.912;2023-06-14T07:33:13;21.70;85.80
18597;DHT22;9428;50.950;6.912;2023-06-14T07:36:00;21.80;85.30
18597;DHT22;9428;50.950;6.912;2023-06-14T07:38:47;21.70;83.60
18597;DHT22;9428;50.950;6.912;2023-06-14T07:41:37;21.90;84.80
18597;DHT22;9428;50.950;6.912;2023-06-14T07:44:24;21.80;83.70
18597;DHT22;9428;50.950;6.912;2023-06-14T07:47:11;22.10;83.50
18597;DHT22;9428;50.950;6.912;2023-06-14T07:50:00;22.10;82.10
18597;DHT22;9428;50.950;6.912;2023-06-14T07:52:47;21.90;82.40
18597;DHT22;9428;50.950;6.912;2023-06-14T07:55:35;22.00;80.50
18597;DHT22;9428;50.950;6.912;2023-06-14T07:58:22;21.70;81.20
18597;DHT22;9428;50.950;6.912;2023-06-14T08:01:10;21.80;84.00
18597;DHT22;9428;50.950;6.912;2023-06-14T08:03:57;22.30;82.80
18597;DHT22;9428;50.950;6.912;2023-06-14T08:06:46;22.10;80.20
18597;DHT22;9428;50.950;6.912;2023-06-14T08:09:34;22.10;80.30
18597;DHT22;9428;50.950;6.912;2023-06-14T08:12:23;22.30;79.50
18597;DHT22;9428;50.950;6.912;2023-06-14T08:15:11;22.20;76.50
18597;DHT22;9428;50.950;6.912;2023-06-14T08:17:58;22.10;72.20
18597;DHT22;9428;50.950;6.912;2023-06-14T08:20:46;22.00;70.60
18597;DHT22;9428;50.950;6.912;2023-06-14T08:23:34;22.10;71.80
18597;DHT22;9428;50.950;6.912;2023-06-14T08:26:22;22.00;71.20
18597;DHT22;9428;50.950;6.912;2023-06-14T08:29:09;22.30;71.20
18597;DHT22;9428;50.950;6.912;2023-06-14T08:31:56;22.80;69.30
18597;DHT22;9428;50.950;6.912;2023-06-14T08:34:43;22.80;66.80
18597;DHT22;9428;50.950;6.912;2023-06-14T08:37:31;22.80;66.60
18597;DHT22;9428;50.950;6.912;2023-06-14T08:40:21;22.70;66.50
18597;DHT22;9428;50.950;6.912;2023-06-14T08:43:09;23.00;65.60
18597;DHT22;9428;50.950;6.912;2023-06-14T08:46:00;23.20;65.70
18597;DHT22;9428;50.950;6.912;2023-06-14T08:48:49;22.90;63.80
18597;DHT22;9428;50.950;6.912;2023-06-14T08:51:38;22.90;66.00
18597;DHT22;9428;50.950;6.912;2023-06-14T08:54:27;22.90;64.40
18597;DHT22;9428;50.950;6.912;2023-06-14T08:57:17;22.60;63.90
18597;DHT22;9428;50.950;6.912;2023-06-14T09:00:07;22.50;64.00
18597;DHT22;9428;50.950;6.912;2023-06-14T09:02:57;22.30;63.90
18597;DHT22;9428;50.950;6.912;2023-06-14T09:05:45;22.30;63.80
18597;DHT22;9428;50.950;6.912;2023-06-14T09:08:32;22.40;64.40
18597;DHT22;9428;50.950;6.912;2023-06-14T09:11:20;22.70;64.80
18597;DHT22;9428;50.950;6.912;2023-06-14T09:14:08;22.80;64.60
18597;DHT22;9428;50.950;6.912;2023-06-14T09:16:56;22.50;63.90
18597;DHT22;9428;50.950;6.912;2023-06-14T09:19:45;22.40;64.70
18597;DHT22;9428;50.950;6.912;2023-06-14T09:22:33;22.50;62.60
18597;DHT22;9428;50.950;6.912;2023-06-14T09:25:20;22.40;62.80
18597;DHT22;9428;50.950;6.912;2023-06-14T09:28:08;22.70;62.60
18597;DHT22;9428;50.950;6.912;2023-06-14T09:30:56;22.90;63.20
18597;DHT22;9428;50.950;6.912;2023-06-14T09:33:44;22.90;64.50
18597;DHT22;9428;50.950;6.912;2023-06-14T09:36:33;22.90;62.60
18597;DHT22;9428;50.950;6.912;2023-06-14T09:39:21;23.00;64.80
18597;DHT22;9428;50.950;6.912;2023-06-14T09:42:16;23.20;64.50
18597;DHT22;9428;50.950;6.912;2023-06-14T09:45:05;22.90;64.10
18597;DHT22;9428;50.950;6.912;2023-06-14T09:47:54;22.90;64.70
18597;DHT22;9428;50.950;6.912;2023-06-14T09:50:42;22.80;65.30
18597;DHT22;9428;50.950;6.912;2023-06-14T09:53:33;22.50;65.70
18597;DHT22;9428;50.950;6.912;2023-06-14T09:56:26;22.90;65.80
18597;DHT22;9428;50.950;6.912;2023-06-14T09:59:16;23.30;65.50
18597;DHT22;9428;50.950;6.912;2023-06-14T10:02:11;23.60;65.50
18597;DHT22;9428;50.950;6.912;2023-06-14T10:05:03;23.20;65.50
18597;DHT22;9428;50.950;6.912;2023-06-14T10:07:54;23.30;66.40
18597;DHT22;9428;50.950;6.912;2023-06-14T10:10:42;23.30;66.00
18597;DHT22;9428;50.950;6.912;2023-06-14T10:13:32;23.30;66.00
18597;DHT22;9428;50.950;6.912;2023-06-14T10:16:23;23.10;65.90
18597;DHT22;9428;50.950;6.912;2023-06-14T10:19:16;23.00;66.00
18597;DHT22;9428;50.950;6.912;2023-06-14T10:22:09;22.90;67.00
18597;DHT22;9428;50.950;6.912;2023-06-14T10:24:58;22.90;67.70
18597;DHT22;9428;50.950;6.912;2023-06-14T10:27:46;23.00;67.80
18597;DHT22;9428;50.950;6.912;2023-06-14T10:30:33;22.70;68.00
18597;DHT22;9428;50.950;6.912;2023-06-14T10:33:21;22.80;68.00
18597;DHT22;9428;50.950;6.912;2023-06-14T10:36:10;22.70;69.00
18597;DHT22;9428;50.950;6.912;2023-06-14T10:39:00;22.70;68.70
18597;DHT22;9428;50.950;6.912;2023-06-14T10:41:52;22.90;68.20
18597;DHT22;9428;50.950;6.912;2023-06-14T10:44:44;22.90;68.00
18597;DHT22;9428;50.950;6.912;2023-06-14T10:47:33;23.10;68.10
18597;DHT22;9428;50.950;6.912;2023-06-14T10:50:27;23.10;68.40
18597;DHT22;9428;50.950;6.912;2023-06-14T10:53:22;22.90;68.80
18597;DHT22;9428;50.950;6.912;2023-06-14T10:56:23;23.00;71.00
18597;DHT22;9428;50.950;6.912;2023-06-14T10:59:12;23.30;69.10
18597;DHT22;9428;50.950;6.912;2023-06-14T11:02:18;23.40;69.50
18597;DHT22;9428;50.950;6.912;2023-06-14T11:05:08;23.20;71.70
18597;DHT22;9428;50.950;6.912;2023-06-14T11:08:16;23.20;68.30
18597;DHT22;9428;50.950;6.912;2023-06-14T11:11:06;23.50;66.80
18597;DHT22;9428;50.950;6.912;2023-06-14T11:13:53;23.60;66.10
18597;DHT22;9428;50.950;6.912;2023-06-14T11:16:41;23.50;65.10
18597;DHT22;9428;50.950;6.912;2023-06-14T11:19:28;23.50;65.20
18597;DHT22;9428;50.950;6.912;2023-06-14T11:22:16;23.40;64.80
18597;DHT22;9428;50.950;6.912;2023-06-14T11:25:03;23.20;66.00
18597;DHT22;9428;50.950;6.912;2023-06-14T11:27:52;23.50;66.80
18597;DHT22;9428;50.950;6.912;2023-06-14T11:30:41;23.60;66.90
18597;DHT22;9428;50.950;6.912;2023-06-14T11:33:28;23.50;68.80
18597;DHT22;9428;50.950;6.912;2023-06-14T11:36:15;23.60;69.70
18597;DHT22;9428;50.950;6.912;2023-06-14T11:39:04;23.70;69.70
18597;DHT22;9428;50.950;6.912;2023-06-14T11:41:52;23.80;70.90
18597;DHT22;9428;50.950;6.912;2023-06-14T11:44:41;23.90;71.00
18597;DHT22;9428;50.950;6.912;2023-06-14T11:47:33;23.80;70.20
18597;DHT22;9428;50.950;6.912;2023-06-14T11:50:20;23.70;70.40
18597;DHT22;9428;50.950;6.912;2023-06-14T11:53:08;23.70;71.00
18597;DHT22;9428;50.950;6.912;2023-06-14T11:55:56;23.80;71.10
18597;DHT22;9428;50.950;6.912;2023-06-14T11:58:44;23.60;72.10
18597;DHT22;9428;50.950;6.912;2023-06-14T12:01:31;23.50;71.50
18597;DHT22;9428;50.950;6.912;2023-06-14T12:04:26;23.60;73.80
18597;DHT22;9428;50.950;6.912;2023-06-14T12:07:15;23.80;73.50
18597;DHT22;9428;50.950;6.912;2023-06-14T12:10:07;23.60;73.10
18597;DHT22;9428;50.950;6.912;2023-06-14T12:12:59;23.40;73.50
18597;DHT22;9428;50.950;6.912;2023-06-14T12:15:54;23.60;74.30
18597;DHT22;9428;50.950;6.912;2023-06-14T12:18:41;23.70;73.10
18597;DHT22;9428;50.950;6.912;2023-06-14T12:21:31;23.90;72.60
18597;DHT22;9428;50.950;6.912;2023-06-14T12:24:19;23.90;71.30
18597;DHT22;9428;50.950;6.912;2023-06-14T12:27:06;24.30;70.00
18597;DHT22;9428;50.950;6.912;2023-06-14T12:29:59;24.50;68.10
18597;DHT22;9428;50.950;6.912;2023-06-14T12:32:46;23.90;68.70
18597;DHT22;9428;50.950;6.912;2023-06-14T12:35:34;24.00;69.50
18597;DHT22;9428;50.950;6.912;2023-06-14T12:38:22;24.10;68.90
18597;DHT22;9428;50.950;6.912;2023-06-14T12:41:10;24.40;68.60
18597;DHT22;9428;50.950;6.912;2023-06-14T12:43:57;24.40;67.00
18597;DHT22;9428;50.950;6.912;2023-06-14T12:46:45;24.30;69.30
18597;DHT22;9428;50.950;6.912;2023-06-14T12:49:33;24.70;68.10
18597;DHT22;9428;50.950;6.912;2023-06-14T12:52:20;24.90;67.20
18597;DHT22;9428;50.950;6.912;2023-06-14T12:55:09;24.80;67.50
18597;DHT22;9428;50.950;6.912;2023-06-14T12:57:56;24.70;67.90
18597;DHT22;9428;50.950;6.912;2023-06-14T13:00:43;24.40;67.80
18597;DHT22;9428;50.950;6.912;2023-06-14T13:03:30;24.40;69.20
18597;DHT22;9428;50.950;6.912;2023-06-14T13:06:20;24.50;68.20
18597;DHT22;9428;50.950;6.912;2023-06-14T13:09:08;24.40;69.10
18597;DHT22;9428;50.950;6.912;2023-06-14T13:11:56;24.40;69.10
18597;DHT22;9428;50.950;6.912;2023-06-14T13:14:44;24.30;69.30
18597;DHT22;9428;50.950;6.912;2023-06-14T13:17:31;24.40;70.10
18597;DHT22;9428;50.950;6.912;2023-06-14T13:20:19;24.60;70.50
18597;DHT22;9428;50.950;6.912;2023-06-14T13:23:06;24.40;68.60
18597;DHT22;9428;50.950;6.912;2023-06-14T13:25:53;24.30;69.40
18597;DHT22;9428;50.950;6.912;2023-06-14T13:28:42;24.20;69.80
18597;DHT22;9428;50.950;6.912;2023-06-14T13:31:29;23.90;69.00
18597;DHT22;9428;50.950;6.912;2023-06-14T13:34:16;24.40;69.50
18597;DHT22;9428;50.950;6.912;2023-06-14T13:37:04;24.50;68.60
18597;DHT22;9428;50.950;6.912;2023-06-14T13:39:51;24.30;69.40
18597;DHT22;9428;50.950;6.912;2023-06-14T13:42:38;24.30;68.70
18597;DHT22;9428;50.950;6.912;2023-06-14T13:45:27;24.30;69.30
18597;DHT22;9428;50.950;6.912;2023-06-14T13:48:14;24.40;68.50
18597;DHT22;9428;50.950;6.912;2023-06-14T13:51:01;24.40;69.70
18597;DHT22;9428;50.950;6.912;2023-06-14T13:53:50;24.70;68.10
18597;DHT22;9428;50.950;6.912;2023-06-14T13:56:37;24.80;67.80
18597;DHT22;9428;50.950;6.912;2023-06-14T13:59:24;25.00;67.70
18597;DHT22;9428;50.950;6.912;2023-06-14T14:02:13;24.90;66.80
18597;DHT22;9428;50.950;6.912;2023-06-14T14:05:00;24.70;67.70
18597;DHT22;9428;50.950;6.912;2023-06-14T14:07:47;24.70;68.40
18597;DHT22;9428;50.950;6.912;2023-06-14T14:10:35;24.70;67.30
18597;DHT22;9428;50.950;6.912;2023-06-14T14:13:22;24.60;67.80
18597;DHT22;9428;50.950;6.912;2023-06-14T14:16:11;24.70;67.90
18597;DHT22;9428;50.950;6.912;2023-06-14T14:19:00;25.00;66.30
18597;DHT22;9428;50.950;6.912;2023-06-14T14:21:48;25.00;66.90
18597;DHT22;9428;50.950;6.912;2023-06-14T14:24:35;24.90;66.00
18597;DHT22;9428;50.950;6.912;2023-06-14T14:27:22;24.90;65.70
18597;DHT22;9428;50.950;6.912;2023-06-14T14:30:10;24.90;66.30
18597;DHT22;9428;50.950;6.912;2023-06-14T14:32:58;24.70;66.40
18597;DHT22;9428;50.950;6.912;2023-06-14T14:35:46;24.40;66.20
18597;DHT22;9428;50.950;6.912;2023-06-14T14:38:34;24.70;67.90
18597;DHT22;9428;50.950;6.912;2023-06-14T14:41:21;24.90;67.10
18597;DHT22;9428;50.950;6.912;2023-06-14T14:44:08;25.00;66.90
18597;DHT22;9428;50.950;6.912;2023-06-14T14:46:55;24.90;66.30
18597;DHT22;9428;50.950;6.912;2023-06-14T14:49:46;24.80;66.00
18597;DHT22;9428;50.950;6.912;2023-06-14T14:52:34;24.80;65.10
18597;DHT22;9428;50.950;6.912;2023-06-14T14:55:22;24.60;65.70
18597;DHT22;9428;50.950;6.912;2023-06-14T14:58:09;24.30;65.30
18597;DHT22;9428;50.950;6.912;2023-06-14T15:00:56;24.10;65.70
18597;DHT22;9428;50.950;6.912;2023-06-14T15:03:46;24.20;65.90
18597;DHT22;9428;50.950;6.912;2023-06-14T15:06:33;24.30;64.80
18597;DHT22;9428;50.950;6.912;2023-06-14T15:09:23;24.40;66.80
18597;DHT22;9428;50.950;6.912;2023-06-14T15:12:10;24.70;66.30
18597;DHT22;9428;50.950;6.912;2023-06-14T15:14:57;24.70;65.50
18597;DHT22;9428;50.950;6.912;2023-06-14T15:17:45;24.60;66.10
18597;DHT22;9428;50.950;6.912;2023-06-14T15:20:32;24.70;66.60
18597;DHT22;9428;50.950;6.912;2023-06-14T15:23:19;24.50;66.50
18597;DHT22;9428;50.950;6.912;2023-06-14T15:26:09;24.60;65.90
18597;DHT22;9428;50.950;6.912;2023-06-14T15:28:56;24.60;65.80
18597;DHT22;9428;50.950;6.912;2023-06-14T15:31:44;24.60;65.20
18597;DHT22;9428;50.950;6.912;2023-06-14T15:34:31;24.40;64.50
18597;DHT22;9428;50.950;6.912;2023-06-14T15:37:18;24.30;64.60
18597;DHT22;9428;50.950;6.912;2023-06-14T15:40:06;24.10;64.50
18597;DHT22;9428;50.950;6.912;2023-06-14T15:42:55;24.20;65.80
18597;DHT22;9428;50.950;6.912;2023-06-14T15:45:42;24.30;65.00
18597;DHT22;9428;50.950;6.912;2023-06-14T15:48:30;24.70;64.60
18597;DHT22;9428;50.950;6.912;2023-06-14T15:51:18;24.70;64.50
18597;DHT22;9428;50.950;6.912;2023-06-14T15:54:05;24.80;64.50
18597;DHT22;9428;50.950;6.912;2023-06-14T15:56:52;24.90;64.90
18597;DHT22;9428;50.950;6.912;2023-06-14T15:59:41;25.20;64.60
18597;DHT22;9428;50.950;6.912;2023-06-14T16:02:28;25.00;64.80
18597;DHT22;9428;50.950;6.912;2023-06-14T16:05:16;24.90;65.50
18597;DHT22;9428;50.950;6.912;2023-06-14T16:08:03;24.60;66.10
18597;DHT22;9428;50.950;6.912;2023-06-14T16:10:51;24.40;66.20
18597;DHT22;9428;50.950;6.912;2023-06-14T16:13:40;24.30;67.10
18597;DHT22;9428;50.950;6.912;2023-06-14T16:16:29;24.20;66.60
18597;DHT22;9428;50.950;6.912;2023-06-14T16:19:16;24.30;67.50
18597;DHT22;9428;50.950;6.912;2023-06-14T16:22:04;24.30;66.20
18597;DHT22;9428;50.950;6.912;2023-06-14T16:24:51;24.50;65.50
18597;DHT22;9428;50.950;6.912;2023-06-14T16:27:39;24.40;64.90
18597;DHT22;9428;50.950;6.912;2023-06-14T16:30:26;24.50;66.20
18597;DHT22;9428;50.950;6.912;2023-06-14T16:33:14;24.40;63.50
18597;DHT22;9428;50.950;6.912;2023-06-14T16:36:02;24.40;63.40
18597;DHT22;9428;50.950;6.912;2023-06-14T16:38:50;24.50;64.20
18597;DHT22;9428;50.950;6.912;2023-06-14T16:41:37;24.70;64.10
18597;DHT22;9428;50.950;6.912;2023-06-14T16:44:24;24.70;65.40
18597;DHT22;9428;50.950;6.912;2023-06-14T16:47:11;24.90;65.90
18597;DHT22;9428;50.950;6.912;2023-06-14T16:50:00;24.90;64.00
18597;DHT22;9428;50.950;6.912;2023-06-14T16:52:47;24.80;63.40
18597;DHT22;9428;50.950;6.912;2023-06-14T16:55:34;24.90;64.30
18597;DHT22;9428;50.950;6.912;2023-06-14T16:58:22;24.70;63.40
18597;DHT22;9428;50.950;6.912;2023-06-14T17:01:09;24.60;64.00
18597;DHT22;9428;50.950;6.912;2023-06-14T17:03:56;24.40;64.20
18597;DHT22;9428;50.950;6.912;2023-06-14T17:06:45;24.30;64.60
18597;DHT22;9428;50.950;6.912;2023-06-14T17:09:32;24.10;65.40
18597;DHT22;9428;50.950;6.912;2023-06-14T17:12:19;24.10;66.50
18597;DHT22;9428;50.950;6.912;2023-06-14T17:15:07;24.10;65.60
18597;DHT22;9428;50.950;6.912;2023-06-14T17:17:55;24.00;64.60
18597;DHT22;9428;50.950;6.912;2023-06-14T17:20:42;24.10;65.20
18597;DHT22;9428;50.950;6.912;2023-06-14T17:23:31;24.20;64.50
18597;DHT22;9428;50.950;6.912;2023-06-14T17:26:19;24.10;64.20
18597;DHT22;9428;50.950;6.912;2023-06-14T17:29:07;24.30;67.50
18597;DHT22;9428;50.950;6.912;2023-06-14T17:31:54;24.50;67.90
18597;DHT22;9428;50.950;6.912;2023-06-14T17:34:41;24.50;65.10
18597;DHT22;9428;50.950;6.912;2023-06-14T17:37:28;24.50;64.60
18597;DHT22;9428;50.950;6.912;2023-06-14T17:40:17;24.70;64.70
18597;DHT22;9428;50.950;6.912;2023-06-14T17:43:04;24.70;63.70
18597;DHT22;9428;50.950;6.912;2023-06-14T17:45:52;24.60;63.20
18597;DHT22;9428;50.950;6.912;2023-06-14T17:48:39;24.60;63.70
18597;DHT22;9428;50.950;6.912;2023-06-14T17:51:27;24.50;63.80
18597;DHT22;9428;50.950;6.912;2023-06-14T17:54:14;24.40;63.80
18597;DHT22;9428;50.950;6.912;2023-06-14T17:57:03;24.30;64.60
18597;DHT22;9428;50.950;6.912;2023-06-14T17:59:50;24.20;64.00